createdAt,value
2019-04-11T00:01:53.504Z,2.73
2019-04-11T00:04:26.165Z,2.57
2019-04-11T00:06:56.825Z,3.03
2019-04-11T00:09:32.554Z,2.90
2019-04-11T00:12:00.402Z,2.70
2019-04-11T00:14:35.903Z,2.70
2019-04-11T00:17:06.103Z,2.93
2019-04-11T00:19:37.792Z,2.83
2019-04-11T00:22:13.110Z,2.97
2019-04-11T00:24:47.628Z,3.13
2019-04-11T00:27:17.139Z,3.20
2019-04-11T00:29:46.995Z,2.83
2019-04-11T00:32:14.397Z,3.40
2019-04-11T00:34:42.976Z,3.10
2019-04-11T00:37:15.382Z,3.03
2019-04-11T00:39:47.931Z,2.80
2019-04-11T00:42:22.758Z,2.93
2019-04-11T00:44:55.311Z,2.70
2019-04-11T00:47:22.971Z,3.37
2019-04-11T00:49:50.528Z,3.17
2019-04-11T00:52:23.378Z,3.47
2019-04-11T00:54:51.416Z,3.20
2019-04-11T00:57:26.065Z,3.73
2019-04-11T01:00:00.882Z,3.10
2019-04-11T01:02:34.290Z,3.27
2019-04-11T01:05:05.468Z,3.63
2019-04-11T01:07:33.243Z,3.60
2019-04-11T01:10:04.402Z,4.00
2019-04-11T01:12:46.931Z,3.30
2019-04-11T01:15:17.520Z,3.10
2019-04-11T01:17:47.692Z,3.37
2019-04-11T01:20:17.478Z,3.27
2019-04-11T01:22:49.050Z,3.23
2019-04-11T01:25:16.716Z,3.80
2019-04-11T01:27:51.303Z,3.30
2019-04-11T01:30:24.964Z,3.20
2019-04-11T01:32:57.284Z,3.77
2019-04-11T01:35:31.089Z,3.60
2019-04-11T01:38:01.965Z,3.57
2019-04-11T01:40:32.454Z,3.13
2019-04-11T01:43:05.926Z,3.53
2019-04-11T01:45:33.819Z,3.17
2019-04-11T01:48:13.205Z,3.07
2019-04-11T01:50:41.191Z,3.73
2019-04-11T01:53:13.736Z,3.57
2019-04-11T01:55:50.467Z,3.20
2019-04-11T01:58:18.364Z,3.40
2019-04-11T02:00:54.688Z,4.20
2019-04-11T02:03:30.859Z,3.57
2019-04-11T02:06:15.984Z,3.63
2019-04-11T02:08:45.739Z,4.30
2019-04-11T02:11:15.151Z,3.30
2019-04-11T02:13:45.428Z,4.27
2019-04-11T02:16:15.280Z,4.37
2019-04-11T02:18:45.730Z,3.83
2019-04-11T02:21:19.897Z,3.90
2019-04-11T02:23:56.334Z,4.77
2019-04-11T02:26:27.292Z,4.07
2019-04-11T02:28:55.237Z,3.60
2019-04-11T02:31:26.179Z,3.87
2019-04-11T02:33:57.350Z,4.17
2019-04-11T02:36:31.454Z,3.57
2019-04-11T02:39:03.643Z,3.43
2019-04-11T02:41:29.846Z,3.97
2019-04-11T02:44:05.744Z,3.90
2019-04-11T02:46:42.787Z,4.30
2019-04-11T02:49:03.379Z,4.00
2019-04-11T02:51:31.276Z,4.33
2019-04-11T02:53:59.044Z,4.13
2019-04-11T02:56:31.355Z,4.57
2019-04-11T02:59:04.494Z,4.20
2019-04-11T03:01:33.946Z,4.07
2019-04-11T03:04:06.489Z,4.30
2019-04-11T03:06:35.268Z,3.87
2019-04-11T03:09:07.834Z,4.93
2019-04-11T03:11:36.719Z,4.03
2019-04-11T03:14:09.614Z,3.67
2019-04-11T03:16:49.254Z,4.37
2019-04-11T03:19:21.247Z,4.77
2019-04-11T03:21:43.609Z,3.50
2019-04-11T03:24:15.331Z,3.60
2019-04-11T03:27:04.610Z,4.20
2019-04-11T03:29:36.355Z,3.40
2019-04-11T03:35:20.563Z,3.73
2019-04-11T03:37:38.044Z,4.50
2019-04-11T03:40:14.742Z,3.77
2019-04-11T03:42:38.106Z,3.80
2019-04-11T03:45:15.105Z,4.30
2019-04-11T03:47:41.024Z,4.40
2019-04-11T03:50:06.112Z,3.53
2019-04-11T03:52:34.635Z,4.20
2019-04-11T03:55:05.815Z,4.40
2019-04-11T03:57:34.095Z,4.23
2019-04-11T04:00:06.293Z,4.47
2019-04-11T04:02:37.226Z,4.40
2019-04-11T04:05:15.317Z,3.93
2019-04-11T04:07:44.375Z,3.73
2019-04-11T04:10:15.731Z,4.07
2019-04-11T04:12:48.852Z,3.73
2019-04-11T04:15:40.094Z,4.97
2019-04-11T04:18:32.667Z,4.60
2019-04-11T04:21:13.527Z,4.13
2019-04-11T04:23:46.292Z,4.17
2019-04-11T04:26:18.962Z,4.37
2019-04-11T04:28:48.092Z,4.00
2019-04-11T04:31:16.265Z,4.27
2019-04-11T04:33:46.054Z,4.33
2019-04-11T04:36:18.358Z,3.70
2019-04-11T04:39:08.706Z,4.43
2019-04-11T04:41:30.830Z,3.83
2019-04-11T04:43:57.028Z,4.40
2019-04-11T04:46:39.904Z,4.37
2019-04-11T04:49:00.064Z,3.93
2019-04-11T04:51:28.849Z,4.37
2019-04-11T04:53:58.379Z,4.70
2019-04-11T04:56:31.557Z,3.37
2019-04-11T04:59:02.722Z,3.93
2019-04-11T05:01:31.672Z,4.27
2019-04-11T05:04:04.673Z,4.23
2019-04-11T05:06:32.332Z,4.07
2019-04-11T05:09:02.379Z,4.50
2019-04-11T05:11:30.536Z,3.80
2019-04-11T05:13:58.757Z,4.07
2019-04-11T05:16:27.938Z,4.83
2019-04-11T05:18:55.366Z,4.27
2019-04-11T05:21:25.346Z,4.57
2019-04-11T05:23:59.049Z,4.80
2019-04-11T05:26:33.460Z,4.30
2019-04-11T05:29:02.889Z,4.10
2019-04-11T05:31:30.586Z,4.00
2019-04-11T05:33:58.025Z,4.50
2019-04-11T05:36:25.467Z,3.93
2019-04-11T05:38:53.136Z,4.20
2019-04-11T05:41:22.024Z,4.80
2019-04-11T05:43:51.604Z,4.57
2019-04-11T05:46:31.991Z,4.40
2019-04-11T05:49:11.913Z,4.40
2019-04-11T05:51:47.620Z,4.07
2019-04-11T05:54:18.353Z,5.13
2019-04-11T05:56:53.051Z,4.13
2019-04-11T05:59:21.693Z,4.43
2019-04-11T06:01:54.899Z,4.50
2019-04-11T06:04:32.296Z,4.70
2019-04-11T06:07:25.144Z,4.60
2019-04-11T06:09:56.572Z,4.67
2019-04-11T06:12:42.074Z,4.67
2019-04-11T06:15:16.818Z,4.37
2019-04-11T06:17:48.115Z,3.87
2019-04-11T06:20:47.277Z,4.20
2019-04-11T06:23:37.136Z,4.00
2019-04-11T06:26:24.864Z,4.27
2019-04-11T06:28:56.933Z,3.60
2019-04-11T06:31:45.531Z,4.40
2019-04-11T06:34:18.985Z,4.57
2019-04-11T06:37:12.137Z,5.50
2019-04-11T06:39:56.706Z,4.20
2019-04-11T06:42:47.585Z,4.17
2019-04-11T06:45:35.744Z,5.13
2019-04-11T06:48:12.044Z,4.30
2019-04-11T06:51:08.163Z,3.97
2019-04-11T06:53:45.619Z,4.50
2019-04-11T06:56:27.200Z,4.83
2019-04-11T06:59:08.002Z,4.80
2019-04-11T07:01:42.780Z,4.20
2019-04-11T07:04:46.074Z,4.80
2019-04-11T07:07:16.239Z,5.07
2019-04-11T07:09:57.692Z,4.90
2019-04-11T07:12:45.498Z,4.60
2019-04-11T07:15:16.610Z,5.20
2019-04-11T07:18:09.754Z,5.07
2019-04-11T07:21:02.908Z,5.27
2019-04-11T07:23:49.747Z,4.63
2019-04-11T07:26:25.216Z,5.00
2019-04-11T07:29:15.191Z,4.60
2019-04-11T07:32:02.619Z,5.20
2019-04-11T07:34:49.883Z,4.93
2019-04-11T07:37:32.667Z,4.60
2019-04-11T07:40:26.864Z,4.83
2019-04-11T07:43:05.375Z,4.87
2019-04-11T07:45:49.058Z,4.70
2019-04-11T07:48:21.404Z,5.40
2019-04-11T07:50:53.727Z,4.23
2019-04-11T07:53:24.340Z,4.87
2019-04-11T07:55:53.145Z,5.77
2019-04-11T07:58:39.842Z,4.97
2019-04-11T08:01:38.893Z,5.73
2019-04-11T08:04:39.382Z,5.20
2019-04-11T08:07:30.407Z,5.67
2019-04-11T08:10:02.520Z,5.30
2019-04-11T08:12:31.748Z,5.27
2019-04-11T08:15:41.855Z,5.20
2019-04-11T08:18:19.206Z,5.50
2019-04-11T08:21:09.911Z,5.30
2019-04-11T08:23:49.901Z,5.10
2019-04-11T08:26:40.138Z,5.47
2019-04-11T08:29:15.563Z,5.60
2019-04-11T08:32:00.450Z,5.37
2019-04-11T08:34:32.273Z,4.73
2019-04-11T08:37:23.309Z,4.77
2019-04-11T08:39:57.630Z,5.00
2019-04-11T08:42:52.890Z,5.30
2019-04-11T08:45:21.652Z,5.07
2019-04-11T08:47:54.356Z,4.77
2019-04-11T08:50:26.157Z,4.40
2019-04-11T08:53:10.716Z,4.77
2019-04-11T08:55:51.964Z,5.10
2019-04-11T08:58:26.715Z,5.13
2019-04-11T09:01:00.497Z,4.97
2019-04-11T09:04:03.084Z,4.50
2019-04-11T09:06:38.965Z,5.67
2019-04-11T09:09:27.655Z,4.70
2019-04-11T09:12:04.420Z,5.33
2019-04-11T09:14:52.679Z,5.87
2019-04-11T09:17:58.006Z,5.50
2019-04-11T09:20:37.972Z,5.00
2019-04-11T09:23:07.727Z,5.27
2019-04-11T09:25:56.489Z,5.17
2019-04-11T09:28:47.565Z,5.03
2019-04-11T09:31:39.768Z,5.37
2019-04-11T09:34:28.026Z,5.77
2019-04-11T09:37:17.665Z,5.13
2019-04-11T09:40:19.458Z,5.13
2019-04-11T09:42:53.467Z,5.80
2019-04-11T09:45:52.750Z,5.80
2019-04-11T09:48:44.140Z,5.80
2019-04-11T09:51:49.954Z,5.10
2019-04-11T09:54:40.162Z,5.72
2019-04-11T09:57:16.458Z,5.27
2019-04-11T09:59:50.324Z,5.70
2019-04-11T10:02:35.563Z,5.53
2019-04-11T10:05:03.662Z,5.78
2019-04-11T10:07:50.212Z,5.50
2019-04-11T10:10:40.704Z,6.05
2019-04-11T10:13:43.061Z,5.85
2019-04-11T10:16:31.812Z,5.83
2019-04-11T10:19:16.307Z,6.60
2019-04-11T10:21:49.965Z,6.00
2019-04-11T10:24:24.426Z,6.15
2019-04-11T10:27:00.508Z,6.45
2019-04-11T10:29:56.767Z,5.95
2019-04-11T10:32:31.402Z,6.58
2019-04-11T10:35:18.427Z,6.08
2019-04-11T10:37:46.271Z,5.90
2019-04-11T10:41:01.798Z,5.80
2019-04-11T10:43:32.140Z,5.62
2019-04-11T10:46:21.510Z,4.85
2019-04-11T10:49:09.474Z,5.17
2019-04-11T10:55:07.696Z,5.20
2019-04-11T10:57:40.782Z,5.00
2019-04-11T11:00:16.342Z,5.83
2019-04-11T11:03:06.252Z,5.97
2019-04-11T11:05:34.885Z,6.60
2019-04-11T11:08:08.972Z,6.70
2019-04-11T11:10:39.721Z,6.20
2019-04-11T11:13:29.901Z,6.78
2019-04-11T11:16:00.415Z,6.75
2019-04-11T11:19:15.652Z,6.60
2019-04-11T11:21:25.004Z,6.58
2019-04-11T11:24:19.785Z,6.50
2019-04-11T11:26:53.565Z,6.33
2019-04-11T11:29:47.382Z,7.55
2019-04-11T11:32:27.979Z,6.67
2019-04-11T11:35:27.608Z,7.33
2019-04-11T11:37:57.525Z,6.77
2019-04-11T11:40:44.238Z,6.97
2019-04-11T11:43:32.859Z,6.87
2019-04-11T11:46:31.217Z,6.70
2019-04-11T11:49:02.741Z,6.90
2019-04-11T11:51:51.988Z,6.53
2019-04-11T11:54:27.202Z,6.80
2019-04-11T11:57:02.682Z,7.55
2019-04-11T11:59:44.897Z,6.35
2019-04-11T12:02:32.735Z,6.55
2019-04-11T12:05:16.349Z,7.03
2019-04-11T12:07:58.106Z,6.53
2019-04-11T12:10:51.560Z,6.87
2019-04-11T12:13:45.288Z,6.72
2019-04-11T12:16:39.617Z,6.67
2019-04-11T12:19:41.228Z,6.97
2019-04-11T12:21:58.368Z,6.78
2019-04-11T12:24:32.490Z,6.85
2019-04-11T12:27:20.519Z,6.58
2019-04-11T12:30:20.940Z,5.92
2019-04-11T12:32:57.281Z,5.90
2019-04-11T12:35:36.395Z,6.47
2019-04-11T12:38:12.608Z,6.65
2019-04-11T12:40:58.352Z,6.90
2019-04-11T12:43:35.769Z,6.55
2019-04-11T12:46:29.852Z,6.00
2019-04-11T12:48:58.175Z,6.60
2019-04-11T12:51:53.475Z,6.45
2019-04-11T12:54:27.186Z,7.15
2019-04-11T12:57:30.032Z,6.85
2019-04-11T13:00:11.420Z,6.72
2019-04-11T13:02:57.070Z,6.47
2019-04-11T13:05:26.622Z,6.72
2019-04-11T13:08:11.776Z,6.33
2019-04-11T13:10:39.969Z,6.30
2019-04-11T13:13:35.604Z,6.22
2019-04-11T13:16:12.628Z,6.35
2019-04-11T13:19:04.832Z,6.47
2019-04-11T13:22:00.985Z,6.45
2019-04-11T13:24:49.028Z,6.67
2019-04-11T13:27:24.881Z,5.80
2019-04-11T13:30:15.163Z,5.83
2019-04-11T13:32:53.082Z,5.65
2019-04-11T13:35:52.327Z,6.50
2019-04-11T13:38:24.286Z,6.30
2019-04-11T13:41:11.873Z,6.22
2019-04-11T13:43:58.393Z,6.58
2019-04-11T13:46:45.747Z,6.62
2019-04-11T13:49:31.201Z,6.30
2019-04-11T13:52:29.199Z,6.05
2019-04-11T13:55:24.480Z,5.67
2019-04-11T13:58:11.328Z,6.22
2019-04-11T14:01:01.470Z,6.70
2019-04-11T14:03:48.316Z,6.12
2019-04-11T14:06:18.987Z,5.87
2019-04-11T14:09:25.322Z,5.85
2019-04-11T14:12:04.745Z,6.08
2019-04-11T14:14:52.678Z,6.00
2019-04-11T14:17:41.601Z,6.78
2019-04-11T14:20:42.550Z,5.95
2019-04-11T14:23:35.378Z,5.55
2019-04-11T14:26:28.807Z,5.20
2019-04-11T14:29:16.002Z,5.22
2019-04-11T14:31:57.601Z,6.15
2019-04-11T14:34:44.542Z,6.40
2019-04-11T14:37:38.174Z,5.97
2019-04-11T14:40:05.909Z,6.40
2019-04-11T14:43:04.735Z,6.08
2019-04-11T14:45:57.434Z,6.15
2019-04-11T14:48:41.928Z,6.30
2019-04-11T14:51:16.980Z,5.85
2019-04-11T14:54:11.986Z,6.08
2019-04-11T14:56:47.631Z,7.65
2019-04-11T15:02:40.241Z,6.22
2019-04-11T15:05:45.579Z,6.15
2019-04-11T15:08:21.580Z,5.63
2019-04-11T15:11:18.475Z,6.47
2019-04-11T15:13:48.104Z,6.77
2019-04-11T15:16:41.265Z,6.30
2019-04-11T15:19:11.504Z,5.73
2019-04-11T15:21:58.375Z,6.20
2019-04-11T15:24:26.107Z,5.83
2019-04-11T15:27:15.835Z,5.60
2019-04-11T15:29:48.420Z,6.20
2019-04-11T15:32:42.533Z,6.17
2019-04-11T15:35:11.997Z,5.77
2019-04-11T15:37:56.796Z,5.70
2019-04-11T15:40:44.103Z,5.63
2019-04-11T15:43:42.067Z,5.73
2019-04-11T15:46:29.543Z,5.43
2019-04-11T15:49:34.700Z,5.07
2019-04-11T15:52:06.909Z,5.50
2019-04-11T15:55:02.208Z,4.90
2019-04-11T15:57:42.881Z,5.70
2019-04-11T16:00:30.515Z,6.00
2019-04-11T16:03:26.315Z,5.63
2019-04-11T16:06:30.495Z,6.00
2019-04-11T16:09:06.816Z,6.07
2019-04-11T16:11:54.268Z,5.53
2019-04-11T16:14:26.990Z,5.87
2019-04-11T16:17:14.737Z,5.63
2019-04-11T16:19:47.583Z,5.43
2019-04-11T16:22:34.832Z,5.87
2019-04-11T16:25:08.620Z,5.60
2019-04-11T16:28:07.254Z,5.67
2019-04-11T16:30:53.765Z,6.03
2019-04-11T16:33:54.321Z,6.07
2019-04-11T16:36:50.252Z,5.50
2019-04-11T16:39:39.328Z,5.83
2019-04-11T16:42:10.943Z,5.70
2019-04-11T16:45:10.382Z,6.03
2019-04-11T16:48:15.291Z,6.00
2019-04-11T16:50:42.709Z,5.97
2019-04-11T16:53:14.381Z,5.23
2019-04-11T16:55:43.657Z,6.93
2019-04-11T16:58:19.679Z,5.90
2019-04-11T17:00:52.575Z,5.73
2019-04-11T17:03:26.622Z,5.87
2019-04-11T17:06:00.025Z,4.90
2019-04-11T17:08:34.979Z,5.90
2019-04-11T17:11:13.761Z,5.27
2019-04-11T17:13:41.969Z,5.30
2019-04-11T17:16:14.160Z,6.07
2019-04-11T17:18:44.523Z,5.73
2019-04-11T17:21:12.241Z,6.43
2019-04-11T17:23:56.850Z,5.70
2019-04-11T17:26:27.413Z,5.43
2019-04-11T17:28:54.834Z,5.90
2019-04-11T17:31:25.952Z,5.57
2019-04-11T17:33:56.622Z,6.13
2019-04-11T17:36:24.241Z,5.80
2019-04-11T17:38:56.886Z,5.60
2019-04-11T17:41:28.757Z,5.60
2019-04-11T17:44:03.241Z,5.63
2019-04-11T17:46:32.570Z,5.73
2019-04-11T17:49:00.029Z,5.20
2019-04-11T17:51:34.627Z,6.00
2019-04-11T17:54:07.122Z,5.80
2019-04-11T17:56:36.970Z,5.80
2019-04-11T17:59:06.798Z,6.03
2019-04-11T18:01:37.788Z,5.63
2019-04-11T18:04:05.382Z,5.97
2019-04-11T18:06:32.900Z,5.53
2019-04-11T18:09:04.788Z,5.90
2019-04-11T18:11:32.261Z,5.60
2019-04-11T18:14:03.509Z,5.47
2019-04-11T18:16:31.670Z,5.57
2019-04-11T18:18:59.310Z,6.00
2019-04-11T18:21:27.262Z,5.70
2019-04-11T18:23:55.706Z,6.23
2019-04-11T18:26:24.663Z,5.23
2019-04-11T18:28:52.651Z,5.70
2019-04-11T18:31:20.087Z,5.47
2019-04-11T18:33:47.563Z,5.90
2019-04-11T18:36:15.529Z,5.20
2019-04-11T18:38:42.973Z,5.60
2019-04-11T18:41:19.945Z,5.53
2019-04-11T18:43:51.475Z,5.60
2019-04-11T18:46:18.776Z,5.50
2019-04-11T18:48:54.558Z,5.47
2019-04-11T18:51:26.943Z,5.70
2019-04-11T18:53:56.897Z,5.40
2019-04-11T18:56:24.660Z,5.80
2019-04-11T18:58:52.368Z,5.73
2019-04-11T19:01:19.790Z,6.40
2019-04-11T19:03:49.201Z,5.03
2019-04-11T19:06:27.410Z,5.70
2019-04-11T19:08:46.904Z,5.30
2019-04-11T19:11:17.414Z,5.77
2019-04-11T19:13:50.532Z,5.60
2019-04-11T19:16:20.808Z,6.17
2019-04-11T19:18:48.882Z,5.57
2019-04-11T19:21:20.194Z,5.20
2019-04-11T19:23:50.024Z,4.90
2019-04-11T19:26:22.948Z,6.50
2019-04-11T19:28:50.511Z,5.47
2019-04-11T19:31:27.160Z,5.80
2019-04-11T19:34:04.459Z,4.70
2019-04-11T19:36:29.433Z,5.17
2019-04-11T19:39:01.063Z,5.53
2019-04-11T19:41:27.781Z,6.07
2019-04-11T19:43:55.855Z,6.23
2019-04-11T19:46:27.219Z,5.83
2019-04-11T19:48:57.088Z,5.10
2019-04-11T19:51:24.536Z,5.33
2019-04-11T19:53:55.191Z,4.73
2019-04-11T19:56:33.977Z,5.67
2019-04-11T19:59:01.303Z,6.17
2019-04-11T20:01:29.132Z,5.33
2019-04-11T20:04:01.359Z,5.83
2019-04-11T20:06:30.766Z,5.30
2019-04-11T20:08:58.510Z,6.30
2019-04-11T20:11:31.300Z,5.70
2019-04-11T20:14:02.040Z,5.30
2019-04-11T20:16:28.002Z,5.53
2019-04-11T20:18:57.483Z,5.23
2019-04-11T20:21:26.326Z,6.00
2019-04-11T20:23:58.410Z,5.50
2019-04-11T20:26:26.109Z,6.03
2019-04-11T20:28:56.894Z,5.47
2019-04-11T20:31:24.916Z,6.00
2019-04-11T20:33:56.537Z,6.60
2019-04-11T20:36:33.294Z,5.63
2019-04-11T20:38:54.964Z,6.17
2019-04-11T20:41:25.204Z,5.80
2019-04-11T20:43:56.007Z,6.87
2019-04-11T20:46:22.259Z,5.97
2019-04-11T20:48:49.721Z,5.57
2019-04-11T20:51:17.657Z,5.37
2019-04-11T20:53:47.918Z,6.43
2019-04-11T20:56:24.389Z,6.40
2019-04-11T20:58:50.937Z,5.97
2019-04-11T21:01:35.613Z,6.10
2019-04-11T21:04:04.661Z,6.20
2019-04-11T21:06:33.562Z,5.87
2019-04-11T21:09:03.117Z,6.40
2019-04-11T21:11:36.399Z,6.00
2019-04-11T21:14:01.417Z,6.13
2019-04-11T21:16:32.120Z,5.90
2019-04-11T21:18:59.602Z,5.83
2019-04-11T21:21:27.605Z,5.87
2019-04-11T21:23:54.947Z,6.03
2019-04-11T21:26:28.499Z,5.90
2019-04-11T21:28:54.337Z,7.10
2019-04-11T21:31:22.940Z,5.37
2019-04-11T21:33:51.714Z,6.03
2019-04-11T21:36:19.238Z,7.00
2019-04-11T21:38:49.949Z,6.70
2019-04-11T21:41:17.497Z,6.17
2019-04-11T21:43:49.229Z,5.97
2019-04-11T21:46:19.790Z,5.73
2019-04-11T21:48:49.087Z,5.60
2019-04-11T21:51:16.678Z,6.53
2019-04-11T21:53:46.202Z,6.80
2019-04-11T21:56:15.923Z,6.43
2019-04-11T21:58:49.884Z,6.57
2019-04-11T22:01:18.679Z,6.20
2019-04-11T22:03:46.128Z,6.93
2019-04-11T22:06:14.027Z,6.53
2019-04-11T22:08:43.948Z,7.57
2019-04-11T22:11:16.138Z,7.60
2019-04-11T22:13:45.250Z,6.53
2019-04-11T22:16:15.353Z,7.13
2019-04-11T22:18:45.365Z,6.97
2019-04-11T22:21:16.126Z,6.43
2019-04-11T22:23:48.924Z,6.53
2019-04-11T22:26:19.587Z,6.40
2019-04-11T22:28:54.850Z,7.37
2019-04-11T22:31:25.023Z,7.50
2019-04-11T22:34:18.725Z,6.57
2019-04-11T22:36:46.106Z,6.10
2019-04-11T22:39:13.491Z,6.90
2019-04-11T22:41:43.858Z,6.50
2019-04-11T22:44:11.391Z,7.13
2019-04-11T22:46:38.796Z,7.00
2019-04-11T22:49:09.370Z,6.93
2019-04-11T22:51:42.669Z,7.20
2019-04-11T22:54:13.698Z,8.37
2019-04-11T22:56:43.464Z,7.47
2019-04-11T22:59:14.645Z,6.90
2019-04-11T23:01:46.795Z,7.10
2019-04-11T23:04:11.470Z,7.10
2019-04-11T23:06:41.885Z,7.60
2019-04-11T23:09:12.105Z,7.07
2019-04-11T23:11:39.460Z,8.27
2019-04-11T23:14:09.669Z,6.97
2019-04-11T23:16:37.262Z,7.70
2019-04-11T23:19:14.348Z,7.00
2019-04-11T23:21:42.199Z,7.47
2019-04-11T23:24:12.059Z,6.93
2019-04-11T23:26:43.418Z,6.77
2019-04-11T23:29:15.675Z,6.83
2019-04-11T23:31:46.379Z,7.47
2019-04-11T23:34:16.130Z,6.67
2019-04-11T23:36:46.763Z,7.00
2019-04-11T23:39:15.641Z,7.13
2019-04-11T23:41:56.952Z,7.90
2019-04-11T23:44:27.471Z,7.57
2019-04-11T23:46:54.950Z,7.73
2019-04-11T23:49:24.936Z,7.23
2019-04-11T23:51:56.007Z,8.00
2019-04-11T23:54:29.224Z,7.63
2019-04-11T23:57:01.552Z,7.27
2019-04-11T23:59:32.701Z,7.30
